Terminal Aerodrome Forecast
Issued by NWS Louisville, KY

Home | Current Version | Previous Version | Text Only | Print | Product List | Glossary On
Versions: 1 2 3 4 5 6 7 8 9 10 11 12 13 14 15 16
000
FTUS43 KLMK 250900 AAB
TAFBWG
TAF AMD
KBWG 250911Z 2509/2606 00000KT P6SM SCT040
      TEMPO 2509/2512 4SM BR
     FM251200 21004KT P6SM SCT040
     FM252100 29006KT P6SM SCT040=

USA.gov is the U.S. government's official web portal to all federal, state and local government web resources and services.